sensor_id;sensor_type;location;lat;lon;timestamp;P1;durP1;ratioP1;P2;durP2;ratioP2
32866;SDS011;19220;55.816;37.808;2023-03-24T00:01:47;7.03;;;6.22;;
32866;SDS011;19220;55.816;37.808;2023-03-24T00:04:12;9.95;;;7.30;;
32866;SDS011;19220;55.816;37.808;2023-03-24T00:06:38;8.63;;;7.07;;
32866;SDS011;19220;55.816;37.808;2023-03-24T00:09:04;8.30;;;6.68;;
32866;SDS011;19220;55.816;37.808;2023-03-24T00:11:30;8.32;;;7.28;;
32866;SDS011;19220;55.816;37.808;2023-03-24T00:14:00;7.30;;;6.60;;
32866;SDS011;19220;55.816;37.808;2023-03-24T00:16:25;8.02;;;6.80;;
32866;SDS011;19220;55.816;37.808;2023-03-24T00:18:52;8.63;;;6.78;;
32866;SDS011;19220;55.816;37.808;2023-03-24T00:21:18;8.15;;;6.40;;
32866;SDS011;19220;55.816;37.808;2023-03-24T00:23:48;8.45;;;6.75;;
32866;SDS011;19220;55.816;37.808;2023-03-24T00:26:15;7.82;;;7.03;;
32866;SDS011;19220;55.816;37.808;2023-03-24T00:28:42;8.95;;;7.53;;
32866;SDS011;19220;55.816;37.808;2023-03-24T00:31:08;8.48;;;6.85;;
32866;SDS011;19220;55.816;37.808;2023-03-24T00:33:34;9.32;;;7.35;;
32866;SDS011;19220;55.816;37.808;2023-03-24T00:36:00;8.02;;;7.22;;
32866;SDS011;19220;55.816;37.808;2023-03-24T00:38:27;10.15;;;7.45;;
32866;SDS011;19220;55.816;37.808;2023-03-24T00:40:52;10.57;;;7.40;;
32866;SDS011;19220;55.816;37.808;2023-03-24T00:43:18;9.05;;;7.50;;
32866;SDS011;19220;55.816;37.808;2023-03-24T00:45:44;9.07;;;7.30;;
32866;SDS011;19220;55.816;37.808;2023-03-24T00:48:13;9.27;;;7.32;;
32866;SDS011;19220;55.816;37.808;2023-03-24T00:50:39;8.68;;;7.50;;
32866;SDS011;19220;55.816;37.808;2023-03-24T00:53:09;8.60;;;7.70;;
32866;SDS011;19220;55.816;37.808;2023-03-24T00:55:35;10.13;;;7.53;;
32866;SDS011;19220;55.816;37.808;2023-03-24T00:58:02;8.55;;;7.40;;
32866;SDS011;19220;55.816;37.808;2023-03-24T01:00:28;11.00;;;7.47;;
32866;SDS011;19220;55.816;37.808;2023-03-24T01:02:55;11.00;;;7.80;;
32866;SDS011;19220;55.816;37.808;2023-03-24T01:05:30;11.00;;;8.07;;
32866;SDS011;19220;55.816;37.808;2023-03-24T01:07:56;8.88;;;7.43;;
32866;SDS011;19220;55.816;37.808;2023-03-24T01:10:22;8.52;;;7.65;;
32866;SDS011;19220;55.816;37.808;2023-03-24T01:12:51;9.93;;;7.70;;
32866;SDS011;19220;55.816;37.808;2023-03-24T01:15:18;9.40;;;7.50;;
32866;SDS011;19220;55.816;37.808;2023-03-24T01:17:44;9.45;;;8.02;;
32866;SDS011;19220;55.816;37.808;2023-03-24T01:20:13;8.88;;;7.97;;
32866;SDS011;19220;55.816;37.808;2023-03-24T01:22:39;8.80;;;7.78;;
32866;SDS011;19220;55.816;37.808;2023-03-24T01:25:06;8.55;;;7.70;;
32866;SDS011;19220;55.816;37.808;2023-03-24T01:27:34;11.73;;;7.90;;
32866;SDS011;19220;55.816;37.808;2023-03-24T01:30:00;10.27;;;7.90;;
32866;SDS011;19220;55.816;37.808;2023-03-24T01:32:27;8.55;;;7.60;;
32866;SDS011;19220;55.816;37.808;2023-03-24T01:34:53;10.73;;;7.93;;
32866;SDS011;19220;55.816;37.808;2023-03-24T01:37:18;9.45;;;7.38;;
32866;SDS011;19220;55.816;37.808;2023-03-24T01:39:44;8.75;;;7.85;;
32866;SDS011;19220;55.816;37.808;2023-03-24T01:42:11;12.30;;;7.90;;
32866;SDS011;19220;55.816;37.808;2023-03-24T01:44:41;8.75;;;7.10;;
32866;SDS011;19220;55.816;37.808;2023-03-24T01:47:06;11.05;;;8.35;;
32866;SDS011;19220;55.816;37.808;2023-03-24T01:49:43;10.30;;;8.20;;
32866;SDS011;19220;55.816;37.808;2023-03-24T01:52:14;8.80;;;7.93;;
32866;SDS011;19220;55.816;37.808;2023-03-24T01:54:49;9.68;;;7.78;;
32866;SDS011;19220;55.816;37.808;2023-03-24T01:57:36;10.48;;;7.55;;
32866;SDS011;19220;55.816;37.808;2023-03-24T02:00:06;10.55;;;7.63;;
32866;SDS011;19220;55.816;37.808;2023-03-24T02:02:52;11.35;;;8.15;;
32866;SDS011;19220;55.816;37.808;2023-03-24T02:05:22;8.35;;;7.35;;
32866;SDS011;19220;55.816;37.808;2023-03-24T02:07:55;10.32;;;8.32;;
32866;SDS011;19220;55.816;37.808;2023-03-24T02:10:23;8.70;;;7.80;;
32866;SDS011;19220;55.816;37.808;2023-03-24T02:12:49;12.88;;;8.30;;
32866;SDS011;19220;55.816;37.808;2023-03-24T02:15:16;9.20;;;8.30;;
32866;SDS011;19220;55.816;37.808;2023-03-24T02:43:35;11.43;;;8.20;;
32866;SDS011;19220;55.816;37.808;2023-03-24T02:51:24;9.25;;;8.35;;
32866;SDS011;19220;55.816;37.808;2023-03-24T02:56:59;12.45;;;8.55;;
32866;SDS011;19220;55.816;37.808;2023-03-24T03:02:32;11.07;;;7.95;;
32866;SDS011;19220;55.816;37.808;2023-03-24T03:05:10;9.52;;;7.95;;
32866;SDS011;19220;55.816;37.808;2023-03-24T03:07:38;10.35;;;7.90;;
32866;SDS011;19220;55.816;37.808;2023-03-24T03:10:15;10.00;;;8.13;;
32866;SDS011;19220;55.816;37.808;2023-03-24T03:12:42;9.68;;;8.13;;
32866;SDS011;19220;55.816;37.808;2023-03-24T03:15:10;10.85;;;8.98;;
32866;SDS011;19220;55.816;37.808;2023-03-24T03:17:38;9.40;;;8.45;;
32866;SDS011;19220;55.816;37.808;2023-03-24T03:20:10;10.40;;;7.90;;
32866;SDS011;19220;55.816;37.808;2023-03-24T03:22:41;9.60;;;8.32;;
32866;SDS011;19220;55.816;37.808;2023-03-24T03:25:09;10.48;;;8.32;;
32866;SDS011;19220;55.816;37.808;2023-03-24T03:27:36;10.40;;;8.52;;
32866;SDS011;19220;55.816;37.808;2023-03-24T03:30:07;11.85;;;8.98;;
32866;SDS011;19220;55.816;37.808;2023-03-24T03:32:37;9.82;;;8.35;;
32866;SDS011;19220;55.816;37.808;2023-03-24T03:35:09;13.10;;;8.77;;
32866;SDS011;19220;55.816;37.808;2023-03-24T03:37:50;10.48;;;8.73;;
32866;SDS011;19220;55.816;37.808;2023-03-24T03:40:21;9.82;;;8.82;;
32866;SDS011;19220;55.816;37.808;2023-03-24T03:42:53;9.52;;;8.35;;
32866;SDS011;19220;55.816;37.808;2023-03-24T03:45:19;10.02;;;8.73;;
32866;SDS011;19220;55.816;37.808;2023-03-24T03:47:44;10.63;;;9.45;;
32866;SDS011;19220;55.816;37.808;2023-03-24T03:50:11;10.50;;;8.77;;
32866;SDS011;19220;55.816;37.808;2023-03-24T03:52:37;11.85;;;8.55;;
32866;SDS011;19220;55.816;37.808;2023-03-24T03:55:04;12.23;;;9.18;;
32866;SDS011;19220;55.816;37.808;2023-03-24T03:57:30;10.25;;;8.82;;
32866;SDS011;19220;55.816;37.808;2023-03-24T04:00:15;9.55;;;8.48;;
32866;SDS011;19220;55.816;37.808;2023-03-24T04:30:02;13.20;;;11.40;;
32866;SDS011;19220;55.816;37.808;2023-03-24T04:32:37;15.00;;;13.45;;
32866;SDS011;19220;55.816;37.808;2023-03-24T04:35:09;14.25;;;12.82;;
32866;SDS011;19220;55.816;37.808;2023-03-24T04:38:04;14.98;;;13.35;;
32866;SDS011;19220;55.816;37.808;2023-03-24T04:40:34;15.38;;;13.07;;
32866;SDS011;19220;55.816;37.808;2023-03-24T04:43:04;18.13;;;14.25;;
32866;SDS011;19220;55.816;37.808;2023-03-24T04:45:31;15.90;;;14.20;;
32866;SDS011;19220;55.816;37.808;2023-03-24T04:48:25;20.60;;;16.00;;
32866;SDS011;19220;55.816;37.808;2023-03-24T04:51:03;15.73;;;13.80;;
32866;SDS011;19220;55.816;37.808;2023-03-24T04:53:44;18.95;;;15.77;;
32866;SDS011;19220;55.816;37.808;2023-03-24T04:56:30;17.92;;;15.93;;
32866;SDS011;19220;55.816;37.808;2023-03-24T04:59:13;17.48;;;14.80;;
32866;SDS011;19220;55.816;37.808;2023-03-24T05:01:41;17.45;;;15.55;;
32866;SDS011;19220;55.816;37.808;2023-03-24T05:04:34;20.10;;;17.02;;
32866;SDS011;19220;55.816;37.808;2023-03-24T05:07:23;19.48;;;16.20;;
32866;SDS011;19220;55.816;37.808;2023-03-24T05:09:54;21.98;;;16.35;;
32866;SDS011;19220;55.816;37.808;2023-03-24T05:12:20;18.00;;;16.10;;
32866;SDS011;19220;55.816;37.808;2023-03-24T05:15:04;19.77;;;17.13;;
32866;SDS011;19220;55.816;37.808;2023-03-24T05:17:31;18.85;;;16.38;;
32866;SDS011;19220;55.816;37.808;2023-03-24T05:19:57;21.27;;;18.13;;
32866;SDS011;19220;55.816;37.808;2023-03-24T05:22:22;23.42;;;16.67;;
32866;SDS011;19220;55.816;37.808;2023-03-24T05:24:48;19.52;;;17.42;;
32866;SDS011;19220;55.816;37.808;2023-03-24T05:27:14;20.75;;;18.50;;
32866;SDS011;19220;55.816;37.808;2023-03-24T05:29:39;20.48;;;16.52;;
32866;SDS011;19220;55.816;37.808;2023-03-24T05:32:06;20.40;;;18.15;;
32866;SDS011;19220;55.816;37.808;2023-03-24T05:34:32;22.70;;;18.90;;
32866;SDS011;19220;55.816;37.808;2023-03-24T05:37:18;22.05;;;18.30;;
32866;SDS011;19220;55.816;37.808;2023-03-24T05:39:48;24.17;;;18.92;;
32866;SDS011;19220;55.816;37.808;2023-03-24T05:42:43;23.77;;;19.25;;
32866;SDS011;19220;55.816;37.808;2023-03-24T05:45:10;24.00;;;18.88;;
32866;SDS011;19220;55.816;37.808;2023-03-24T05:47:36;25.55;;;19.27;;
32866;SDS011;19220;55.816;37.808;2023-03-24T05:50:02;27.52;;;19.25;;
32866;SDS011;19220;55.816;37.808;2023-03-24T05:52:29;25.20;;;20.10;;
32866;SDS011;19220;55.816;37.808;2023-03-24T05:55:08;21.90;;;19.15;;
32866;SDS011;19220;55.816;37.808;2023-03-24T05:57:35;24.90;;;19.90;;
32866;SDS011;19220;55.816;37.808;2023-03-24T06:00:21;26.35;;;18.92;;
32866;SDS011;19220;55.816;37.808;2023-03-24T06:02:56;24.58;;;18.60;;
32866;SDS011;19220;55.816;37.808;2023-03-24T06:05:26;25.23;;;19.65;;
32866;SDS011;19220;55.816;37.808;2023-03-24T06:07:52;23.58;;;18.27;;
32866;SDS011;19220;55.816;37.808;2023-03-24T06:10:24;20.27;;;18.10;;
32866;SDS011;19220;55.816;37.808;2023-03-24T06:12:51;24.35;;;19.95;;
32866;SDS011;19220;55.816;37.808;2023-03-24T06:15:17;23.10;;;20.48;;
32866;SDS011;19220;55.816;37.808;2023-03-24T06:17:45;24.30;;;19.17;;
32866;SDS011;19220;55.816;37.808;2023-03-24T06:20:22;23.63;;;18.70;;
32866;SDS011;19220;55.816;37.808;2023-03-24T06:23:17;26.90;;;20.17;;
32866;SDS011;19220;55.816;37.808;2023-03-24T06:25:54;26.70;;;20.70;;
32866;SDS011;19220;55.816;37.808;2023-03-24T06:28:22;22.75;;;20.25;;
32866;SDS011;19220;55.816;37.808;2023-03-24T06:30:51;26.33;;;20.92;;
32866;SDS011;19220;55.816;37.808;2023-03-24T06:33:24;27.00;;;20.73;;
32866;SDS011;19220;55.816;37.808;2023-03-24T06:35:51;28.15;;;21.33;;
32866;SDS011;19220;55.816;37.808;2023-03-24T06:38:17;22.92;;;20.35;;
32866;SDS011;19220;55.816;37.808;2023-03-24T06:40:43;30.40;;;22.35;;
32866;SDS011;19220;55.816;37.808;2023-03-24T06:43:09;24.88;;;21.20;;
32866;SDS011;19220;55.816;37.808;2023-03-24T06:45:37;24.70;;;20.73;;
32866;SDS011;19220;55.816;37.808;2023-03-24T06:48:05;24.02;;;19.23;;
32866;SDS011;19220;55.816;37.808;2023-03-24T06:50:32;24.63;;;20.60;;
32866;SDS011;19220;55.816;37.808;2023-03-24T06:53:04;21.05;;;18.85;;
32866;SDS011;19220;55.816;37.808;2023-03-24T06:55:34;20.58;;;18.45;;
32866;SDS011;19220;55.816;37.808;2023-03-24T06:57:59;21.83;;;17.35;;
32866;SDS011;19220;55.816;37.808;2023-03-24T07:01:00;23.63;;;19.23;;
32866;SDS011;19220;55.816;37.808;2023-03-24T07:03:31;26.80;;;19.15;;
32866;SDS011;19220;55.816;37.808;2023-03-24T07:06:15;19.20;;;16.67;;
32866;SDS011;19220;55.816;37.808;2023-03-24T07:08:44;19.10;;;17.10;;
32866;SDS011;19220;55.816;37.808;2023-03-24T07:11:10;22.20;;;18.50;;
32866;SDS011;19220;55.816;37.808;2023-03-24T07:13:40;18.83;;;16.83;;
32866;SDS011;19220;55.816;37.808;2023-03-24T07:16:06;19.75;;;17.55;;
32866;SDS011;19220;55.816;37.808;2023-03-24T07:18:34;17.13;;;15.30;;
32866;SDS011;19220;55.816;37.808;2023-03-24T07:21:03;21.30;;;16.88;;
32866;SDS011;19220;55.816;37.808;2023-03-24T07:23:30;20.10;;;16.13;;
32866;SDS011;19220;55.816;37.808;2023-03-24T07:26:08;26.30;;;18.38;;
32866;SDS011;19220;55.816;37.808;2023-03-24T07:28:46;20.00;;;16.65;;
32866;SDS011;19220;55.816;37.808;2023-03-24T07:31:20;18.83;;;16.55;;
32866;SDS011;19220;55.816;37.808;2023-03-24T07:33:52;19.60;;;15.13;;
32866;SDS011;19220;55.816;37.808;2023-03-24T07:36:17;18.30;;;14.60;;
32866;SDS011;19220;55.816;37.808;2023-03-24T07:38:43;17.15;;;15.35;;
32866;SDS011;19220;55.816;37.808;2023-03-24T07:41:13;20.10;;;15.23;;
32866;SDS011;19220;55.816;37.808;2023-03-24T07:43:44;17.45;;;14.48;;
32866;SDS011;19220;55.816;37.808;2023-03-24T07:46:19;17.95;;;14.82;;
32866;SDS011;19220;55.816;37.808;2023-03-24T07:48:45;15.73;;;12.82;;
32866;SDS011;19220;55.816;37.808;2023-03-24T07:51:12;18.55;;;13.88;;
32866;SDS011;19220;55.816;37.808;2023-03-24T07:53:51;16.85;;;13.30;;
32866;SDS011;19220;55.816;37.808;2023-03-24T07:56:40;17.38;;;13.52;;
32866;SDS011;19220;55.816;37.808;2023-03-24T07:59:07;13.60;;;11.95;;
32866;SDS011;19220;55.816;37.808;2023-03-24T08:01:48;12.75;;;10.82;;
32866;SDS011;19220;55.816;37.808;2023-03-24T08:04:24;12.65;;;10.90;;
32866;SDS011;19220;55.816;37.808;2023-03-24T08:07:18;12.27;;;10.98;;
32866;SDS011;19220;55.816;37.808;2023-03-24T08:09:44;14.20;;;10.55;;
32866;SDS011;19220;55.816;37.808;2023-03-24T08:12:09;13.20;;;10.65;;
32866;SDS011;19220;55.816;37.808;2023-03-24T08:14:35;11.30;;;10.10;;
32866;SDS011;19220;55.816;37.808;2023-03-24T08:17:00;13.75;;;10.55;;
32866;SDS011;19220;55.816;37.808;2023-03-24T08:19:26;13.40;;;9.82;;
32866;SDS011;19220;55.816;37.808;2023-03-24T08:21:52;13.32;;;9.13;;
32866;SDS011;19220;55.816;37.808;2023-03-24T08:24:18;11.35;;;9.40;;
32866;SDS011;19220;55.816;37.808;2023-03-24T08:26:44;12.93;;;10.15;;
32866;SDS011;19220;55.816;37.808;2023-03-24T08:29:11;14.15;;;10.20;;
32866;SDS011;19220;55.816;37.808;2023-03-24T08:31:36;12.50;;;10.32;;
32866;SDS011;19220;55.816;37.808;2023-03-24T08:34:02;11.25;;;10.05;;
32866;SDS011;19220;55.816;37.808;2023-03-24T08:36:28;11.13;;;8.13;;
32866;SDS011;19220;55.816;37.808;2023-03-24T08:38:54;12.25;;;8.50;;
32866;SDS011;19220;55.816;37.808;2023-03-24T08:41:21;11.02;;;8.38;;
32866;SDS011;19220;55.816;37.808;2023-03-24T08:43:47;8.82;;;7.93;;
32866;SDS011;19220;55.816;37.808;2023-03-24T08:46:12;9.52;;;8.40;;
32866;SDS011;19220;55.816;37.808;2023-03-24T08:48:39;8.90;;;7.40;;
32866;SDS011;19220;55.816;37.808;2023-03-24T08:51:12;8.02;;;7.20;;
32866;SDS011;19220;55.816;37.808;2023-03-24T08:53:38;8.45;;;7.35;;
32866;SDS011;19220;55.816;37.808;2023-03-24T08:56:03;9.77;;;7.30;;
32866;SDS011;19220;55.816;37.808;2023-03-24T08:58:29;8.02;;;7.20;;
32866;SDS011;19220;55.816;37.808;2023-03-24T09:00:54;8.13;;;7.28;;
32866;SDS011;19220;55.816;37.808;2023-03-24T09:03:20;10.18;;;6.68;;
32866;SDS011;19220;55.816;37.808;2023-03-24T09:05:46;9.65;;;6.60;;
32866;SDS011;19220;55.816;37.808;2023-03-24T09:08:13;7.00;;;6.30;;
32866;SDS011;19220;55.816;37.808;2023-03-24T09:10:40;8.05;;;6.18;;
32866;SDS011;19220;55.816;37.808;2023-03-24T09:13:05;9.13;;;6.97;;
32866;SDS011;19220;55.816;37.808;2023-03-24T09:15:31;10.30;;;6.40;;
32866;SDS011;19220;55.816;37.808;2023-03-24T09:17:57;6.85;;;5.20;;
32866;SDS011;19220;55.816;37.808;2023-03-24T09:20:23;8.60;;;6.20;;
32866;SDS011;19220;55.816;37.808;2023-03-24T09:22:48;6.68;;;5.90;;
32866;SDS011;19220;55.816;37.808;2023-03-24T09:25:16;6.95;;;6.25;;
32866;SDS011;19220;55.816;37.808;2023-03-24T09:27:42;7.13;;;6.43;;
32866;SDS011;19220;55.816;37.808;2023-03-24T09:30:14;6.60;;;5.88;;
32866;SDS011;19220;55.816;37.808;2023-03-24T09:32:40;6.25;;;5.50;;
32866;SDS011;19220;55.816;37.808;2023-03-24T09:35:06;6.40;;;5.80;;
32866;SDS011;19220;55.816;37.808;2023-03-24T09:37:33;7.20;;;6.18;;
32866;SDS011;19220;55.816;37.808;2023-03-24T09:39:59;9.98;;;5.82;;
32866;SDS011;19220;55.816;37.808;2023-03-24T09:42:27;6.50;;;5.88;;
32866;SDS011;19220;55.816;37.808;2023-03-24T09:44:56;6.03;;;5.43;;
32866;SDS011;19220;55.816;37.808;2023-03-24T09:47:25;10.32;;;5.57;;
32866;SDS011;19220;55.816;37.808;2023-03-24T09:49:51;6.88;;;5.10;;
32866;SDS011;19220;55.816;37.808;2023-03-24T09:52:22;5.72;;;5.18;;
32866;SDS011;19220;55.816;37.808;2023-03-24T09:57:25;5.53;;;4.93;;
32866;SDS011;19220;55.816;37.808;2023-03-24T09:59:52;7.70;;;5.00;;
32866;SDS011;19220;55.816;37.808;2023-03-24T10:02:18;5.70;;;5.10;;
32866;SDS011;19220;55.816;37.808;2023-03-24T10:04:44;5.85;;;5.10;;
32866;SDS011;19220;55.816;37.808;2023-03-24T10:09:45;5.97;;;5.32;;
32866;SDS011;19220;55.816;37.808;2023-03-24T10:12:18;5.25;;;4.75;;
32866;SDS011;19220;55.816;37.808;2023-03-24T10:14:48;5.45;;;4.90;;
32866;SDS011;19220;55.816;37.808;2023-03-24T10:29:57;5.55;;;5.05;;
32866;SDS011;19220;55.816;37.808;2023-03-24T10:32:25;6.25;;;5.65;;
32866;SDS011;19220;55.816;37.808;2023-03-24T10:34:56;7.32;;;6.13;;
32866;SDS011;19220;55.816;37.808;2023-03-24T10:37:22;7.00;;;5.55;;
32866;SDS011;19220;55.816;37.808;2023-03-24T10:39:48;6.45;;;5.82;;
32866;SDS011;19220;55.816;37.808;2023-03-24T10:42:16;6.20;;;5.60;;
32866;SDS011;19220;55.816;37.808;2023-03-24T10:44:43;5.72;;;5.05;;
32866;SDS011;19220;55.816;37.808;2023-03-24T10:47:09;6.30;;;5.70;;
32866;SDS011;19220;55.816;37.808;2023-03-24T10:49:37;6.32;;;5.72;;
32866;SDS011;19220;55.816;37.808;2023-03-24T10:52:16;6.65;;;5.50;;
32866;SDS011;19220;55.816;37.808;2023-03-24T10:54:44;6.10;;;5.25;;
32866;SDS011;19220;55.816;37.808;2023-03-24T10:57:17;6.15;;;5.55;;
32866;SDS011;19220;55.816;37.808;2023-03-24T11:02:19;5.65;;;5.05;;
32866;SDS011;19220;55.816;37.808;2023-03-24T11:04:51;7.10;;;5.45;;
32866;SDS011;19220;55.816;37.808;2023-03-24T11:07:18;5.45;;;4.95;;
32866;SDS011;19220;55.816;37.808;2023-03-24T11:09:46;5.65;;;5.15;;
32866;SDS011;19220;55.816;37.808;2023-03-24T11:12:22;6.03;;;5.15;;
32866;SDS011;19220;55.816;37.808;2023-03-24T11:14:48;5.88;;;5.28;;
32866;SDS011;19220;55.816;37.808;2023-03-24T11:17:14;6.35;;;4.95;;
32866;SDS011;19220;55.816;37.808;2023-03-24T11:19:49;5.70;;;4.75;;
32866;SDS011;19220;55.816;37.808;2023-03-24T11:22:15;5.35;;;4.85;;
32866;SDS011;19220;55.816;37.808;2023-03-24T11:24:41;5.03;;;4.20;;
32866;SDS011;19220;55.816;37.808;2023-03-24T11:27:09;4.80;;;4.30;;
32866;SDS011;19220;55.816;37.808;2023-03-24T11:29:39;4.97;;;4.47;;
32866;SDS011;19220;55.816;37.808;2023-03-24T11:32:20;4.40;;;4.00;;
32866;SDS011;19220;55.816;37.808;2023-03-24T11:34:46;5.95;;;4.20;;
32866;SDS011;19220;55.816;37.808;2023-03-24T11:37:21;4.40;;;3.90;;
32866;SDS011;19220;55.816;37.808;2023-03-24T11:42:31;4.20;;;3.78;;
32866;SDS011;19220;55.816;37.808;2023-03-24T11:44:57;4.50;;;3.40;;
32866;SDS011;19220;55.816;37.808;2023-03-24T11:47:32;3.40;;;3.10;;
32866;SDS011;19220;55.816;37.808;2023-03-24T11:55:17;4.40;;;3.60;;
32866;SDS011;19220;55.816;37.808;2023-03-24T12:00:32;3.97;;;3.25;;
32866;SDS011;19220;55.816;37.808;2023-03-24T12:05:31;3.78;;;3.20;;
32866;SDS011;19220;55.816;37.808;2023-03-24T12:13:34;4.72;;;3.00;;
32866;SDS011;19220;55.816;37.808;2023-03-24T12:21:07;6.70;;;3.42;;
32866;SDS011;19220;55.816;37.808;2023-03-24T12:23:48;5.63;;;3.30;;
32866;SDS011;19220;55.816;37.808;2023-03-24T12:26:16;3.40;;;3.05;;
32866;SDS011;19220;55.816;37.808;2023-03-24T12:36:45;4.03;;;3.33;;
32866;SDS011;19220;55.816;37.808;2023-03-24T12:39:14;5.75;;;3.05;;
32866;SDS011;19220;55.816;37.808;2023-03-24T12:57:09;2.75;;;2.25;;
32866;SDS011;19220;55.816;37.808;2023-03-24T12:59:45;2.60;;;2.40;;
32866;SDS011;19220;55.816;37.808;2023-03-24T13:02:29;3.08;;;2.35;;
32866;SDS011;19220;55.816;37.808;2023-03-24T13:04:59;3.72;;;2.83;;
32866;SDS011;19220;55.816;37.808;2023-03-24T13:07:30;4.90;;;2.50;;
32866;SDS011;19220;55.816;37.808;2023-03-24T13:12:44;3.33;;;2.60;;
32866;SDS011;19220;55.816;37.808;2023-03-24T13:20:25;3.72;;;2.13;;
32866;SDS011;19220;55.816;37.808;2023-03-24T13:22:51;4.75;;;2.50;;
32866;SDS011;19220;55.816;37.808;2023-03-24T13:28:10;2.90;;;2.15;;
32866;SDS011;19220;55.816;37.808;2023-03-24T13:30:39;2.25;;;2.03;;
32866;SDS011;19220;55.816;37.808;2023-03-24T13:33:13;2.75;;;2.28;;
32866;SDS011;19220;55.816;37.808;2023-03-24T13:40:51;2.92;;;1.92;;
32866;SDS011;19220;55.816;37.808;2023-03-24T13:43:18;3.28;;;2.55;;
32866;SDS011;19220;55.816;37.808;2023-03-24T13:45:49;4.18;;;2.40;;
32866;SDS011;19220;55.816;37.808;2023-03-24T13:48:20;2.20;;;1.90;;
32866;SDS011;19220;55.816;37.808;2023-03-24T13:50:53;3.05;;;2.13;;
32866;SDS011;19220;55.816;37.808;2023-03-24T13:53:24;6.85;;;2.45;;
32866;SDS011;19220;55.816;37.808;2023-03-24T13:55:52;3.03;;;2.35;;
32866;SDS011;19220;55.816;37.808;2023-03-24T13:58:19;2.58;;;2.10;;
32866;SDS011;19220;55.816;37.808;2023-03-24T14:01:05;3.42;;;2.25;;
32866;SDS011;19220;55.816;37.808;2023-03-24T15:45:56;1.70;;;1.50;;
32866;SDS011;19220;55.816;37.808;2023-03-24T15:48:29;4.78;;;2.33;;
32866;SDS011;19220;55.816;37.808;2023-03-24T15:50:59;3.78;;;1.73;;
32866;SDS011;19220;55.816;37.808;2023-03-24T15:53:47;3.83;;;2.22;;
32866;SDS011;19220;55.816;37.808;2023-03-24T15:58:46;4.15;;;1.90;;
32866;SDS011;19220;55.816;37.808;2023-03-24T16:01:12;5.97;;;2.53;;
32866;SDS011;19220;55.816;37.808;2023-03-24T16:03:41;5.05;;;2.33;;
32866;SDS011;19220;55.816;37.808;2023-03-24T16:06:14;3.78;;;2.47;;
32866;SDS011;19220;55.816;37.808;2023-03-24T16:08:40;3.85;;;2.60;;
32866;SDS011;19220;55.816;37.808;2023-03-24T16:11:08;5.43;;;2.30;;
32866;SDS011;19220;55.816;37.808;2023-03-24T16:13:39;4.93;;;2.53;;
32866;SDS011;19220;55.816;37.808;2023-03-24T16:18:38;5.25;;;2.63;;
32866;SDS011;19220;55.816;37.808;2023-03-24T16:21:20;5.13;;;2.60;;
32866;SDS011;19220;55.816;37.808;2023-03-24T16:23:46;4.25;;;2.45;;
32866;SDS011;19220;55.816;37.808;2023-03-24T16:26:13;4.90;;;2.40;;
32866;SDS011;19220;55.816;37.808;2023-03-24T16:28:39;5.90;;;2.88;;
32866;SDS011;19220;55.816;37.808;2023-03-24T16:31:05;8.15;;;3.20;;
32866;SDS011;19220;55.816;37.808;2023-03-24T16:33:31;3.88;;;2.40;;
32866;SDS011;19220;55.816;37.808;2023-03-24T16:35:57;5.88;;;2.50;;
32866;SDS011;19220;55.816;37.808;2023-03-24T16:38:23;3.08;;;1.65;;
32866;SDS011;19220;55.816;37.808;2023-03-24T16:40:50;6.75;;;2.35;;
32866;SDS011;19220;55.816;37.808;2023-03-24T16:43:15;3.00;;;2.05;;
32866;SDS011;19220;55.816;37.808;2023-03-24T16:45:44;3.35;;;2.13;;
32866;SDS011;19220;55.816;37.808;2023-03-24T16:48:10;3.30;;;2.15;;
32866;SDS011;19220;55.816;37.808;2023-03-24T16:50:36;3.03;;;1.90;;
32866;SDS011;19220;55.816;37.808;2023-03-24T16:53:03;6.93;;;1.92;;
32866;SDS011;19220;55.816;37.808;2023-03-24T16:55:30;4.45;;;2.15;;
32866;SDS011;19220;55.816;37.808;2023-03-24T16:57:55;2.90;;;2.03;;
32866;SDS011;19220;55.816;37.808;2023-03-24T17:00:21;2.88;;;2.05;;
32866;SDS011;19220;55.816;37.808;2023-03-24T17:02:47;4.43;;;2.08;;
32866;SDS011;19220;55.816;37.808;2023-03-24T17:07:42;2.50;;;1.83;;
32866;SDS011;19220;55.816;37.808;2023-03-24T17:10:07;3.85;;;2.00;;
32866;SDS011;19220;55.816;37.808;2023-03-24T17:12:33;4.28;;;1.75;;
32866;SDS011;19220;55.816;37.808;2023-03-24T17:14:58;3.35;;;2.08;;
32866;SDS011;19220;55.816;37.808;2023-03-24T17:17:24;4.60;;;2.40;;
32866;SDS011;19220;55.816;37.808;2023-03-24T17:19:50;4.15;;;1.98;;
32866;SDS011;19220;55.816;37.808;2023-03-24T17:22:15;2.85;;;2.10;;
32866;SDS011;19220;55.816;37.808;2023-03-24T17:24:45;3.65;;;2.50;;
32866;SDS011;19220;55.816;37.808;2023-03-24T17:27:15;2.30;;;1.77;;
32866;SDS011;19220;55.816;37.808;2023-03-24T17:29:43;3.13;;;1.73;;
32866;SDS011;19220;55.816;37.808;2023-03-24T17:32:09;3.38;;;2.00;;
32866;SDS011;19220;55.816;37.808;2023-03-24T17:34:34;5.68;;;2.30;;
32866;SDS011;19220;55.816;37.808;2023-03-24T17:37:02;3.65;;;2.15;;
32866;SDS011;19220;55.816;37.808;2023-03-24T17:39:28;8.70;;;2.70;;
32866;SDS011;19220;55.816;37.808;2023-03-24T17:41:53;3.97;;;1.90;;
32866;SDS011;19220;55.816;37.808;2023-03-24T17:44:21;4.18;;;2.10;;
32866;SDS011;19220;55.816;37.808;2023-03-24T17:46:47;4.30;;;2.03;;
32866;SDS011;19220;55.816;37.808;2023-03-24T17:49:12;4.38;;;2.10;;
32866;SDS011;19220;55.816;37.808;2023-03-24T17:51:38;3.28;;;2.03;;
32866;SDS011;19220;55.816;37.808;2023-03-24T17:54:03;4.20;;;2.97;;
32866;SDS011;19220;55.816;37.808;2023-03-24T17:56:29;4.85;;;3.30;;
32866;SDS011;19220;55.816;37.808;2023-03-24T17:58:55;16.23;;;11.20;;
32866;SDS011;19220;55.816;37.808;2023-03-24T18:01:22;4.22;;;2.90;;
32866;SDS011;19220;55.816;37.808;2023-03-24T18:03:48;3.17;;;2.33;;
32866;SDS011;19220;55.816;37.808;2023-03-24T18:06:14;5.13;;;2.80;;
32866;SDS011;19220;55.816;37.808;2023-03-24T18:08:41;7.38;;;2.63;;
32866;SDS011;19220;55.816;37.808;2023-03-24T18:11:08;9.00;;;3.80;;
32866;SDS011;19220;55.816;37.808;2023-03-24T18:13:34;4.68;;;2.40;;
32866;SDS011;19220;55.816;37.808;2023-03-24T18:15:59;5.53;;;2.33;;
32866;SDS011;19220;55.816;37.808;2023-03-24T18:18:25;4.80;;;2.35;;
32866;SDS011;19220;55.816;37.808;2023-03-24T18:20:51;3.50;;;2.08;;
32866;SDS011;19220;55.816;37.808;2023-03-24T18:23:16;3.72;;;2.30;;
32866;SDS011;19220;55.816;37.808;2023-03-24T18:25:42;4.97;;;2.30;;
32866;SDS011;19220;55.816;37.808;2023-03-24T18:28:08;3.15;;;2.00;;
32866;SDS011;19220;55.816;37.808;2023-03-24T18:30:34;4.88;;;2.13;;
32866;SDS011;19220;55.816;37.808;2023-03-24T18:32:59;4.45;;;2.17;;
32866;SDS011;19220;55.816;37.808;2023-03-24T18:35:25;4.57;;;2.40;;
32866;SDS011;19220;55.816;37.808;2023-03-24T18:37:52;7.70;;;2.50;;
32866;SDS011;19220;55.816;37.808;2023-03-24T18:40:18;5.70;;;2.20;;
32866;SDS011;19220;55.816;37.808;2023-03-24T18:42:43;4.53;;;2.50;;
32866;SDS011;19220;55.816;37.808;2023-03-24T18:45:09;4.18;;;2.67;;
32866;SDS011;19220;55.816;37.808;2023-03-24T18:47:43;3.03;;;2.40;;
32866;SDS011;19220;55.816;37.808;2023-03-24T18:50:09;5.60;;;2.15;;
32866;SDS011;19220;55.816;37.808;2023-03-24T18:52:35;5.03;;;2.70;;
32866;SDS011;19220;55.816;37.808;2023-03-24T18:55:00;9.77;;;3.42;;
32866;SDS011;19220;55.816;37.808;2023-03-24T18:57:27;5.97;;;2.80;;